FIN79U EFHK-LPFR
Flight info
| Callsign | FIN79U |
|---|---|
| Flight time | 4h 38m |
| Altitude | 34000 |
| Route | KUVEM Y366 USITU DCT LUPET DCT UMIXA DCT KULUD/N0443F360 DCT INPUN DCT AMRAK DCT BLUFA DCT GISEB DCT NIK/N0433F350 DCT KOVIN DCT DUCRA/N0435F370 DCT RESMI DCT DEKOD DCT DISAK DCT ARKIP DCT ARNAV DCT LMG DCT UVELI DCT OSMOB DCT VAVIX DCT BTZ DCT URUNA DCT SSN DCT VRA DCT NEA L14 ADINO DCT ELVAR DCT ALAGU |
| Aircraft | A320/M-SDE3FGHIRWY/LB1 |
Departure
| Time | 2026-04-26 12:20 |
|---|---|
| Airport | Helsinki Vantaa Airport (EFHK) |
Arrival
| Time | 2026-04-26 16:58 |
|---|---|
| Airport | Faro - Gago Coutinho International Airport (LPFR) |
| Time | Latitude | Longitude | Altitude | Speed | Heading |
|---|---|---|---|---|---|
| 2026-04-26 11:42 | 60.31965 | 24.96740 | 167 ft | 0 kts | 174° |
| 2026-04-26 12:07 | 60.31976 | 24.96738 | 166 ft | 4 kts | 172° |
| 2026-04-26 12:07 | 60.32002 | 24.96725 | 166 ft | 4 kts | 153° |
| 2026-04-26 12:07 | 60.32019 | 24.96697 | 166 ft | 4 kts | 90° |
| 2026-04-26 12:08 | 60.32017 | 24.96681 | 166 ft | 0 kts | 47° |
| 2026-04-26 12:14 | 60.32032 | 24.96714 | 166 ft | 5 kts | 47° |
| 2026-04-26 12:14 | 60.32052 | 24.96757 | 166 ft | 5 kts | 47° |
| 2026-04-26 12:14 | 60.32082 | 24.96824 | 166 ft | 6 kts | 47° |
| 2026-04-26 12:14 | 60.32115 | 24.96889 | 166 ft | 8 kts | 40° |
| 2026-04-26 12:15 | 60.32141 | 24.96992 | 166 ft | 8 kts | 102° |
| 2026-04-26 12:15 | 60.32090 | 24.97068 | 166 ft | 14 kts | 152° |
| 2026-04-26 12:15 | 60.31998 | 24.97162 | 165 ft | 14 kts | 153° |
| 2026-04-26 12:15 | 60.31910 | 24.97251 | 162 ft | 14 kts | 153° |
| 2026-04-26 12:16 | 60.31825 | 24.97341 | 161 ft | 13 kts | 153° |
| 2026-04-26 12:16 | 60.31740 | 24.97429 | 160 ft | 14 kts | 153° |
| 2026-04-26 12:16 | 60.31657 | 24.97514 | 159 ft | 13 kts | 152° |
| 2026-04-26 12:16 | 60.31565 | 24.97611 | 155 ft | 17 kts | 153° |
| 2026-04-26 12:17 | 60.31467 | 24.97713 | 156 ft | 15 kts | 153° |
| 2026-04-26 12:17 | 60.31379 | 24.97802 | 156 ft | 13 kts | 153° |
| 2026-04-26 12:17 | 60.31306 | 24.97879 | 158 ft | 13 kts | 152° |
| 2026-04-26 12:17 | 60.31204 | 24.97982 | 158 ft | 16 kts | 153° |
| 2026-04-26 12:18 | 60.31111 | 24.98078 | 158 ft | 17 kts | 153° |
| 2026-04-26 12:18 | 60.30998 | 24.98185 | 158 ft | 15 kts | 154° |
| 2026-04-26 12:18 | 60.30982 | 24.98356 | 156 ft | 14 kts | 64° |
| 2026-04-26 12:18 | 60.31049 | 24.98479 | 155 ft | 13 kts | 353° |
| 2026-04-26 12:19 | 60.31132 | 24.98393 | 158 ft | 21 kts | 332° |
| 2026-04-26 12:19 | 60.31483 | 24.98036 | 154 ft | 91 kts | 333° |
| 2026-04-26 12:19 | 60.32218 | 24.97281 | 161 ft | 143 kts | 333° |
| 2026-04-26 12:19 | 60.33140 | 24.96364 | 624 ft | 150 kts | 335° |
| 2026-04-26 12:20 | 60.34029 | 24.95273 | 1311 ft | 150 kts | 321° |
| 2026-04-26 12:20 | 60.34752 | 24.93678 | 1729 ft | 164 kts | 306° |
| 2026-04-26 12:20 | 60.35260 | 24.91446 | 1931 ft | 189 kts | 289° |
| 2026-04-26 12:20 | 60.35378 | 24.88610 | 2157 ft | 220 kts | 269° |
| 2026-04-26 12:21 | 60.34885 | 24.85461 | 2508 ft | 252 kts | 248° |
| 2026-04-26 12:21 | 60.34031 | 24.82300 | 3139 ft | 260 kts | 249° |
| 2026-04-26 12:21 | 60.33160 | 24.79050 | 3849 ft | 266 kts | 249° |
| 2026-04-26 12:21 | 60.32275 | 24.75743 | 4592 ft | 270 kts | 249° |
| 2026-04-26 12:22 | 60.31381 | 24.72397 | 5338 ft | 273 kts | 249° |
| 2026-04-26 12:22 | 60.30473 | 24.68990 | 6049 ft | 277 kts | 249° |
| 2026-04-26 12:22 | 60.29633 | 24.65492 | 6763 ft | 275 kts | 259° |
| 2026-04-26 12:22 | 60.29097 | 24.61814 | 7487 ft | 275 kts | 262° |
| 2026-04-26 12:23 | 60.28562 | 24.58076 | 8181 ft | 279 kts | 261° |
| 2026-04-26 12:23 | 60.28018 | 24.54302 | 8880 ft | 282 kts | 261° |
| 2026-04-26 12:23 | 60.27466 | 24.50492 | 9568 ft | 285 kts | 261° |
| 2026-04-26 12:23 | 60.26902 | 24.46602 | 10007 ft | 298 kts | 259° |
| 2026-04-26 12:24 | 60.26301 | 24.42433 | 10141 ft | 321 kts | 259° |
| 2026-04-26 12:24 | 60.25664 | 24.38017 | 10511 ft | 333 kts | 259° |
| 2026-04-26 12:24 | 60.25002 | 24.33513 | 11113 ft | 337 kts | 258° |
| 2026-04-26 12:25 | 60.23652 | 24.24366 | 12353 ft | 344 kts | 257° |
| 2026-04-26 12:25 | 60.22962 | 24.19736 | 12961 ft | 347 kts | 257° |
| 2026-04-26 12:25 | 60.22262 | 24.15064 | 13569 ft | 350 kts | 256° |
| 2026-04-26 12:25 | 60.21556 | 24.10375 | 14167 ft | 352 kts | 256° |
| 2026-04-26 12:26 | 60.20843 | 24.05644 | 14733 ft | 354 kts | 256° |
| 2026-04-26 12:26 | 60.20125 | 24.00890 | 15286 ft | 357 kts | 256° |
| 2026-04-26 12:26 | 60.19406 | 23.96111 | 15839 ft | 359 kts | 256° |
| 2026-04-26 12:26 | 60.18701 | 23.91290 | 16386 ft | 360 kts | 257° |
| 2026-04-26 12:27 | 60.18074 | 23.86405 | 16898 ft | 362 kts | 258° |
| 2026-04-26 12:27 | 60.17499 | 23.81471 | 17399 ft | 364 kts | 259° |
| 2026-04-26 12:27 | 60.16941 | 23.76497 | 17888 ft | 366 kts | 259° |
| 2026-04-26 12:27 | 60.16378 | 23.71491 | 18388 ft | 368 kts | 259° |
| 2026-04-26 12:28 | 60.15800 | 23.66465 | 18869 ft | 371 kts | 258° |
| 2026-04-26 12:28 | 60.15204 | 23.61400 | 19336 ft | 374 kts | 258° |
| 2026-04-26 12:28 | 60.14589 | 23.56309 | 19807 ft | 377 kts | 258° |
| 2026-04-26 12:28 | 60.13965 | 23.51180 | 20277 ft | 379 kts | 258° |
| 2026-04-26 12:29 | 60.13337 | 23.46020 | 20735 ft | 382 kts | 258° |
| 2026-04-26 12:29 | 60.12702 | 23.40839 | 21176 ft | 384 kts | 258° |
| 2026-04-26 12:29 | 60.11411 | 23.30360 | 22022 ft | 390 kts | 258° |
| 2026-04-26 12:30 | 60.10757 | 23.25065 | 22420 ft | 393 kts | 258° |
| 2026-04-26 12:30 | 60.10096 | 23.19737 | 22808 ft | 395 kts | 258° |
| 2026-04-26 12:30 | 60.09426 | 23.14374 | 23194 ft | 398 kts | 259° |
| 2026-04-26 12:31 | 60.08078 | 23.03648 | 23911 ft | 402 kts | 259° |
| 2026-04-26 12:31 | 60.07392 | 22.98197 | 24260 ft | 405 kts | 260° |
| 2026-04-26 12:31 | 60.06700 | 22.92721 | 24588 ft | 407 kts | 260° |
| 2026-04-26 12:31 | 60.06003 | 22.87216 | 24913 ft | 409 kts | 261° |
| 2026-04-26 12:32 | 60.05299 | 22.81691 | 25229 ft | 412 kts | 261° |
| 2026-04-26 12:32 | 60.04584 | 22.76120 | 25549 ft | 414 kts | 261° |
| 2026-04-26 12:32 | 60.03138 | 22.64915 | 26148 ft | 418 kts | 262° |
| 2026-04-26 12:33 | 60.02399 | 22.59199 | 26441 ft | 420 kts | 262° |
| 2026-04-26 12:33 | 60.01676 | 22.53611 | 26714 ft | 422 kts | 262° |
| 2026-04-26 12:33 | 60.00928 | 22.47850 | 26990 ft | 424 kts | 262° |
| 2026-04-26 12:33 | 60.00193 | 22.42210 | 27259 ft | 426 kts | 262° |
| 2026-04-26 12:34 | 59.99444 | 22.36479 | 27501 ft | 428 kts | 262° |
| 2026-04-26 12:34 | 59.98688 | 22.30717 | 27746 ft | 430 kts | 263° |
| 2026-04-26 12:34 | 59.97921 | 22.24932 | 27983 ft | 432 kts | 263° |
| 2026-04-26 12:34 | 59.97146 | 22.19123 | 28232 ft | 434 kts | 263° |
| 2026-04-26 12:35 | 59.96368 | 22.13293 | 28462 ft | 436 kts | 263° |
| 2026-04-26 12:35 | 59.95584 | 22.07448 | 28713 ft | 437 kts | 263° |
| 2026-04-26 12:35 | 59.94796 | 22.01589 | 28946 ft | 438 kts | 263° |
| 2026-04-26 12:35 | 59.94004 | 21.95708 | 29160 ft | 440 kts | 263° |
| 2026-04-26 12:36 | 59.93209 | 21.89813 | 29372 ft | 441 kts | 263° |
| 2026-04-26 12:36 | 59.92407 | 21.83899 | 29562 ft | 443 kts | 263° |
| 2026-04-26 12:36 | 59.91598 | 21.77968 | 29775 ft | 444 kts | 263° |
| 2026-04-26 12:36 | 59.90785 | 21.72021 | 29969 ft | 446 kts | 263° |
| 2026-04-26 12:37 | 59.89965 | 21.66061 | 30156 ft | 447 kts | 263° |
| 2026-04-26 12:37 | 59.89138 | 21.60092 | 30413 ft | 446 kts | 263° |
| 2026-04-26 12:37 | 59.88311 | 21.54139 | 30668 ft | 446 kts | 263° |
| 2026-04-26 12:37 | 59.87481 | 21.48197 | 30932 ft | 445 kts | 263° |
| 2026-04-26 12:38 | 59.86652 | 21.42262 | 31184 ft | 445 kts | 263° |
| 2026-04-26 12:38 | 59.85823 | 21.36329 | 31418 ft | 445 kts | 263° |
| 2026-04-26 12:38 | 59.84994 | 21.30400 | 31652 ft | 445 kts | 263° |
| 2026-04-26 12:38 | 59.84165 | 21.24490 | 31919 ft | 444 kts | 263° |
| 2026-04-26 12:39 | 59.83333 | 21.18578 | 32170 ft | 443 kts | 263° |
| 2026-04-26 12:39 | 59.82499 | 21.12682 | 32405 ft | 443 kts | 263° |
| 2026-04-26 12:39 | 59.81662 | 21.06794 | 32651 ft | 442 kts | 263° |
| 2026-04-26 12:39 | 59.80823 | 21.00928 | 32880 ft | 442 kts | 262° |
| 2026-04-26 12:40 | 59.79976 | 20.95060 | 33098 ft | 442 kts | 262° |
| 2026-04-26 12:40 | 59.79128 | 20.89199 | 33316 ft | 441 kts | 262° |
| 2026-04-26 12:40 | 59.78283 | 20.83348 | 33555 ft | 440 kts | 262° |
| 2026-04-26 12:40 | 59.77439 | 20.77507 | 33774 ft | 440 kts | 262° |
| 2026-04-26 12:41 | 59.76592 | 20.71667 | 33952 ft | 440 kts | 262° |
| 2026-04-26 12:41 | 59.74900 | 20.60134 | 33996 ft | 433 kts | 262° |
| 2026-04-26 12:42 | 59.73214 | 20.48701 | 34006 ft | 431 kts | 262° |
| 2026-04-26 12:42 | 59.71528 | 20.37304 | 34008 ft | 431 kts | 262° |
| 2026-04-26 12:43 | 59.69843 | 20.25997 | 34009 ft | 431 kts | 262° |
| 2026-04-26 12:43 | 59.68134 | 20.14614 | 34008 ft | 431 kts | 262° |
| 2026-04-26 12:44 | 59.66412 | 20.03264 | 34012 ft | 431 kts | 262° |
| 2026-04-26 12:44 | 59.64669 | 19.91921 | 34018 ft | 433 kts | 260° |
| 2026-04-26 12:44 | 59.63460 | 19.86385 | 34019 ft | 445 kts | 250° |
| 2026-04-26 12:45 | 59.61763 | 19.81195 | 34019 ft | 453 kts | 244° |
| 2026-04-26 12:45 | 59.58143 | 19.71028 | 34031 ft | 452 kts | 244° |
| 2026-04-26 12:46 | 59.54530 | 19.60888 | 34028 ft | 452 kts | 244° |
| 2026-04-26 12:46 | 59.50916 | 19.50753 | 34039 ft | 453 kts | 244° |
| 2026-04-26 12:47 | 59.47279 | 19.40627 | 34047 ft | 453 kts | 244° |
| 2026-04-26 12:47 | 59.43627 | 19.30534 | 34050 ft | 453 kts | 244° |
| 2026-04-26 12:48 | 59.39978 | 19.20477 | 34050 ft | 452 kts | 244° |
| 2026-04-26 12:48 | 59.36331 | 19.10447 | 34050 ft | 452 kts | 244° |
| 2026-04-26 12:49 | 59.32678 | 19.00423 | 34055 ft | 452 kts | 244° |
| 2026-04-26 12:49 | 59.29009 | 18.90451 | 34059 ft | 451 kts | 244° |
| 2026-04-26 12:50 | 59.25344 | 18.80515 | 34057 ft | 451 kts | 244° |
| 2026-04-26 12:50 | 59.21671 | 18.70584 | 34062 ft | 451 kts | 244° |
| 2026-04-26 12:51 | 59.17992 | 18.60680 | 34071 ft | 451 kts | 244° |
| 2026-04-26 12:51 | 59.14291 | 18.50793 | 34075 ft | 451 kts | 244° |
| 2026-04-26 12:52 | 59.10590 | 18.40922 | 34073 ft | 451 kts | 244° |
| 2026-04-26 12:52 | 59.06892 | 18.31079 | 34084 ft | 451 kts | 244° |
| 2026-04-26 12:53 | 59.03184 | 18.21275 | 34087 ft | 450 kts | 244° |
| 2026-04-26 12:53 | 59.00096 | 18.13133 | 34088 ft | 450 kts | 244° |
| 2026-04-26 12:54 | 58.96381 | 18.03372 | 34086 ft | 450 kts | 244° |
| 2026-04-26 12:54 | 58.92652 | 17.93642 | 34092 ft | 449 kts | 244° |
| 2026-04-26 12:55 | 58.88923 | 17.83942 | 34100 ft | 449 kts | 244° |
| 2026-04-26 12:55 | 58.85199 | 17.74287 | 34102 ft | 448 kts | 244° |
| 2026-04-26 12:56 | 58.81475 | 17.64658 | 34109 ft | 447 kts | 244° |
| 2026-04-26 12:56 | 58.77749 | 17.55068 | 34109 ft | 446 kts | 244° |
| 2026-04-26 12:57 | 58.74019 | 17.45508 | 34110 ft | 446 kts | 244° |
| 2026-04-26 12:57 | 58.70292 | 17.35978 | 34106 ft | 446 kts | 244° |
| 2026-04-26 12:58 | 58.64701 | 17.21798 | 34110 ft | 445 kts | 243° |
| 2026-04-26 12:58 | 58.60952 | 17.12349 | 34108 ft | 445 kts | 243° |
| 2026-04-26 12:59 | 58.57207 | 17.02915 | 34113 ft | 445 kts | 243° |
| 2026-04-26 12:59 | 58.53453 | 16.93493 | 34118 ft | 444 kts | 243° |
| 2026-04-26 13:00 | 58.49699 | 16.84120 | 34119 ft | 444 kts | 243° |
| 2026-04-26 13:00 | 58.45940 | 16.74763 | 34132 ft | 443 kts | 243° |
| 2026-04-26 13:01 | 58.42179 | 16.65447 | 34140 ft | 443 kts | 243° |
| 2026-04-26 13:01 | 58.38415 | 16.56170 | 34148 ft | 442 kts | 243° |
| 2026-04-26 13:02 | 58.34647 | 16.46926 | 34153 ft | 441 kts | 243° |
| 2026-04-26 13:02 | 58.30883 | 16.37730 | 34151 ft | 440 kts | 243° |
| 2026-04-26 13:03 | 58.27131 | 16.28563 | 34156 ft | 439 kts | 243° |
| 2026-04-26 13:03 | 58.23397 | 16.19491 | 34156 ft | 439 kts | 243° |
| 2026-04-26 13:04 | 58.19638 | 16.10393 | 34160 ft | 438 kts | 242° |
| 2026-04-26 13:04 | 58.15878 | 16.01330 | 34162 ft | 437 kts | 242° |
| 2026-04-26 13:05 | 58.12112 | 15.92293 | 34161 ft | 437 kts | 242° |
| 2026-04-26 13:05 | 58.08350 | 15.83285 | 34164 ft | 437 kts | 242° |
| 2026-04-26 13:06 | 58.04581 | 15.74298 | 34161 ft | 436 kts | 242° |
| 2026-04-26 13:06 | 58.00809 | 15.65339 | 34160 ft | 436 kts | 242° |
| 2026-04-26 13:07 | 57.97028 | 15.56396 | 34165 ft | 437 kts | 242° |
| 2026-04-26 13:07 | 57.93231 | 15.47462 | 34175 ft | 437 kts | 242° |
| 2026-04-26 13:08 | 57.89437 | 15.38564 | 34185 ft | 436 kts | 242° |
| 2026-04-26 13:08 | 57.85639 | 15.29687 | 34193 ft | 435 kts | 242° |
| 2026-04-26 13:09 | 57.81845 | 15.20847 | 34197 ft | 434 kts | 242° |
| 2026-04-26 13:09 | 57.78056 | 15.12047 | 34197 ft | 433 kts | 242° |
| 2026-04-26 13:10 | 57.74268 | 15.03289 | 34200 ft | 432 kts | 242° |
| 2026-04-26 13:10 | 57.70481 | 14.94579 | 34198 ft | 432 kts | 242° |
| 2026-04-26 13:11 | 57.66696 | 14.85881 | 34197 ft | 431 kts | 241° |
| 2026-04-26 13:11 | 57.62915 | 14.77211 | 34197 ft | 430 kts | 241° |
| 2026-04-26 13:12 | 57.59125 | 14.68581 | 34199 ft | 430 kts | 241° |
| 2026-04-26 13:12 | 57.55352 | 14.60029 | 34201 ft | 430 kts | 241° |
| 2026-04-26 13:13 | 57.51531 | 14.51386 | 34212 ft | 429 kts | 241° |
| 2026-04-26 13:13 | 57.47737 | 14.42816 | 34202 ft | 429 kts | 241° |
| 2026-04-26 13:14 | 57.43931 | 14.34267 | 34215 ft | 429 kts | 240° |
| 2026-04-26 13:14 | 57.40152 | 14.25813 | 34204 ft | 428 kts | 241° |
| 2026-04-26 13:15 | 57.36345 | 14.17319 | 34210 ft | 428 kts | 240° |
| 2026-04-26 13:15 | 57.32527 | 14.08851 | 34212 ft | 429 kts | 240° |
| 2026-04-26 13:16 | 57.28709 | 14.00398 | 34216 ft | 428 kts | 240° |
| 2026-04-26 13:16 | 57.24900 | 13.91964 | 34214 ft | 427 kts | 240° |
| 2026-04-26 13:17 | 57.19166 | 13.79386 | 34207 ft | 427 kts | 239° |
| 2026-04-26 13:18 | 57.12971 | 13.67426 | 34222 ft | 437 kts | 230° |
| 2026-04-26 13:19 | 57.06053 | 13.56461 | 34231 ft | 438 kts | 230° |
| 2026-04-26 13:19 | 57.01437 | 13.49172 | 34240 ft | 437 kts | 230° |
| 2026-04-26 13:20 | 56.96826 | 13.41901 | 34243 ft | 436 kts | 230° |
| 2026-04-26 13:20 | 56.92224 | 13.34660 | 34245 ft | 436 kts | 230° |
| 2026-04-26 13:21 | 56.87618 | 13.27446 | 34255 ft | 436 kts | 230° |
| 2026-04-26 13:21 | 56.83004 | 13.20252 | 34267 ft | 436 kts | 230° |
| 2026-04-26 13:22 | 56.78390 | 13.13081 | 34275 ft | 435 kts | 230° |
| 2026-04-26 13:22 | 56.73821 | 13.05977 | 34280 ft | 434 kts | 230° |
| 2026-04-26 13:23 | 56.69215 | 12.98859 | 34286 ft | 434 kts | 229° |
| 2026-04-26 13:23 | 56.64608 | 12.91777 | 34289 ft | 433 kts | 229° |
| 2026-04-26 13:24 | 56.60008 | 12.84722 | 34296 ft | 432 kts | 229° |
| 2026-04-26 13:24 | 56.55411 | 12.77685 | 34296 ft | 432 kts | 229° |
| 2026-04-26 13:25 | 56.50814 | 12.70672 | 34301 ft | 431 kts | 229° |
| 2026-04-26 13:25 | 56.46225 | 12.63683 | 34303 ft | 431 kts | 229° |
| 2026-04-26 13:26 | 56.41632 | 12.56730 | 34300 ft | 430 kts | 229° |
| 2026-04-26 13:26 | 56.37037 | 12.49798 | 34315 ft | 430 kts | 229° |
| 2026-04-26 13:27 | 56.32446 | 12.42889 | 34311 ft | 429 kts | 229° |
| 2026-04-26 13:27 | 56.27855 | 12.36001 | 34334 ft | 431 kts | 228° |
| 2026-04-26 13:27 | 56.25646 | 12.32398 | 34490 ft | 425 kts | 235° |
| 2026-04-26 13:28 | 56.23691 | 12.28446 | 34694 ft | 422 kts | 237° |
| 2026-04-26 13:28 | 56.21767 | 12.24473 | 34915 ft | 421 kts | 237° |
| 2026-04-26 13:28 | 56.19839 | 12.20508 | 35113 ft | 421 kts | 237° |
| 2026-04-26 13:28 | 56.17911 | 12.16547 | 35283 ft | 422 kts | 237° |
| 2026-04-26 13:29 | 56.15974 | 12.12584 | 35465 ft | 422 kts | 237° |
| 2026-04-26 13:29 | 56.14694 | 12.09970 | 35587 ft | 422 kts | 237° |
| 2026-04-26 13:29 | 56.12104 | 12.04683 | 35823 ft | 421 kts | 236° |
| 2026-04-26 13:29 | 56.10170 | 12.00737 | 35981 ft | 421 kts | 236° |
| 2026-04-26 13:30 | 56.08237 | 11.96803 | 36133 ft | 421 kts | 236° |
| 2026-04-26 13:30 | 56.06303 | 11.92877 | 36281 ft | 421 kts | 236° |
| 2026-04-26 13:30 | 56.04360 | 11.88939 | 36319 ft | 422 kts | 236° |
| 2026-04-26 13:31 | 56.00498 | 11.81131 | 36320 ft | 422 kts | 236° |
| 2026-04-26 13:31 | 55.96581 | 11.73236 | 36324 ft | 422 kts | 236° |
| 2026-04-26 13:32 | 55.92686 | 11.65401 | 36322 ft | 422 kts | 236° |
| 2026-04-26 13:32 | 55.88818 | 11.57639 | 36321 ft | 421 kts | 236° |
| 2026-04-26 13:33 | 55.84893 | 11.49801 | 36326 ft | 421 kts | 235° |
| 2026-04-26 13:33 | 55.81014 | 11.42098 | 36329 ft | 421 kts | 235° |
| 2026-04-26 13:34 | 55.77064 | 11.34405 | 36321 ft | 422 kts | 233° |
| 2026-04-26 13:34 | 55.72889 | 11.27030 | 36326 ft | 424 kts | 231° |
| 2026-04-26 13:35 | 55.68614 | 11.19798 | 36327 ft | 425 kts | 230° |
| 2026-04-26 13:35 | 55.64366 | 11.12557 | 36338 ft | 423 kts | 231° |
| 2026-04-26 13:36 | 55.60161 | 11.05283 | 36332 ft | 422 kts | 231° |
| 2026-04-26 13:36 | 55.55969 | 10.98031 | 36330 ft | 421 kts | 231° |
| 2026-04-26 13:37 | 55.51771 | 10.90805 | 36340 ft | 421 kts | 230° |
| 2026-04-26 13:37 | 55.47564 | 10.83614 | 36329 ft | 421 kts | 230° |
| 2026-04-26 13:38 | 55.43366 | 10.76464 | 36338 ft | 420 kts | 230° |
| 2026-04-26 13:38 | 55.39166 | 10.69330 | 36330 ft | 419 kts | 230° |
| 2026-04-26 13:39 | 55.34967 | 10.62218 | 36327 ft | 419 kts | 230° |
| 2026-04-26 13:39 | 55.30762 | 10.55119 | 36332 ft | 419 kts | 230° |
| 2026-04-26 13:40 | 55.26556 | 10.48048 | 36330 ft | 419 kts | 230° |
| 2026-04-26 13:40 | 55.22350 | 10.40978 | 36332 ft | 419 kts | 230° |
| 2026-04-26 13:41 | 55.18135 | 10.33915 | 36331 ft | 419 kts | 230° |
| 2026-04-26 13:41 | 55.13917 | 10.26885 | 36332 ft | 419 kts | 229° |
| 2026-04-26 13:42 | 55.09726 | 10.19923 | 36334 ft | 419 kts | 229° |
| 2026-04-26 13:42 | 55.05505 | 10.12924 | 36335 ft | 419 kts | 229° |
| 2026-04-26 13:43 | 55.01963 | 10.07064 | 36337 ft | 419 kts | 229° |
| 2026-04-26 13:43 | 54.97729 | 10.00098 | 36337 ft | 419 kts | 229° |
| 2026-04-26 13:44 | 54.93525 | 9.93182 | 36342 ft | 419 kts | 228° |
| 2026-04-26 13:44 | 54.89297 | 9.86244 | 36343 ft | 418 kts | 228° |
| 2026-04-26 13:45 | 54.85067 | 9.79336 | 36341 ft | 417 kts | 228° |
| 2026-04-26 13:45 | 54.80861 | 9.72413 | 36340 ft | 416 kts | 230° |
| 2026-04-26 13:46 | 54.76883 | 9.65139 | 36340 ft | 415 kts | 232° |
| 2026-04-26 13:46 | 54.73005 | 9.57763 | 36343 ft | 415 kts | 232° |
| 2026-04-26 13:47 | 54.69077 | 9.50438 | 36342 ft | 415 kts | 231° |
| 2026-04-26 13:47 | 54.65111 | 9.43192 | 36341 ft | 415 kts | 231° |
| 2026-04-26 13:48 | 54.61136 | 9.35993 | 36336 ft | 414 kts | 231° |
| 2026-04-26 13:48 | 54.57186 | 9.28844 | 36332 ft | 414 kts | 231° |
| 2026-04-26 13:49 | 54.53209 | 9.21651 | 36338 ft | 414 kts | 231° |
| 2026-04-26 13:49 | 54.49239 | 9.14463 | 36333 ft | 414 kts | 231° |
| 2026-04-26 13:50 | 54.45263 | 9.07300 | 36336 ft | 414 kts | 230° |
| 2026-04-26 13:50 | 54.41275 | 9.00158 | 36334 ft | 414 kts | 230° |
| 2026-04-26 13:51 | 54.37279 | 8.93022 | 36330 ft | 414 kts | 230° |
| 2026-04-26 13:51 | 54.33280 | 8.85897 | 36331 ft | 415 kts | 230° |
| 2026-04-26 13:52 | 54.29275 | 8.78784 | 36330 ft | 415 kts | 230° |
| 2026-04-26 13:52 | 54.25275 | 8.71681 | 36336 ft | 414 kts | 230° |
| 2026-04-26 13:53 | 54.21269 | 8.64585 | 36332 ft | 415 kts | 230° |
| 2026-04-26 13:53 | 54.17252 | 8.57501 | 36340 ft | 416 kts | 229° |
| 2026-04-26 13:54 | 54.13217 | 8.50424 | 36343 ft | 416 kts | 229° |
| 2026-04-26 13:54 | 54.09182 | 8.43361 | 36347 ft | 416 kts | 229° |
| 2026-04-26 13:55 | 54.03812 | 8.33980 | 36346 ft | 415 kts | 229° |
| 2026-04-26 13:56 | 53.97069 | 8.22274 | 36345 ft | 415 kts | 229° |
| 2026-04-26 13:56 | 53.93024 | 8.15271 | 36343 ft | 415 kts | 229° |
| 2026-04-26 13:57 | 53.88979 | 8.08291 | 36346 ft | 415 kts | 229° |
| 2026-04-26 13:57 | 53.84931 | 8.01321 | 36342 ft | 415 kts | 229° |
| 2026-04-26 13:58 | 53.80887 | 7.94369 | 36339 ft | 415 kts | 229° |
| 2026-04-26 13:58 | 53.76841 | 7.87430 | 36339 ft | 414 kts | 229° |
| 2026-04-26 13:59 | 53.72775 | 7.80510 | 36339 ft | 415 kts | 228° |
| 2026-04-26 13:59 | 53.68711 | 7.73614 | 36341 ft | 414 kts | 228° |
| 2026-04-26 14:00 | 53.60595 | 7.59878 | 36341 ft | 415 kts | 228° |
| 2026-04-26 14:01 | 53.56516 | 7.52997 | 36345 ft | 416 kts | 228° |
| 2026-04-26 14:01 | 53.52430 | 7.46116 | 36343 ft | 416 kts | 228° |
| 2026-04-26 14:02 | 53.48330 | 7.39247 | 36345 ft | 416 kts | 228° |
| 2026-04-26 14:02 | 53.44220 | 7.32377 | 36348 ft | 418 kts | 228° |
| 2026-04-26 14:03 | 53.40093 | 7.25496 | 36355 ft | 418 kts | 228° |
| 2026-04-26 14:03 | 53.35967 | 7.18630 | 36357 ft | 418 kts | 227° |
| 2026-04-26 14:04 | 53.31827 | 7.11775 | 36354 ft | 419 kts | 227° |
| 2026-04-26 14:04 | 53.27683 | 7.04931 | 36356 ft | 419 kts | 227° |
| 2026-04-26 14:05 | 53.23531 | 6.98091 | 36357 ft | 420 kts | 227° |
| 2026-04-26 14:05 | 53.19373 | 6.91264 | 36358 ft | 420 kts | 227° |
| 2026-04-26 14:06 | 53.15209 | 6.84434 | 36360 ft | 420 kts | 227° |
| 2026-04-26 14:06 | 53.11034 | 6.77620 | 36359 ft | 420 kts | 227° |
| 2026-04-26 14:07 | 53.06849 | 6.70818 | 36362 ft | 421 kts | 227° |
| 2026-04-26 14:07 | 53.02656 | 6.64026 | 36363 ft | 420 kts | 227° |
| 2026-04-26 14:08 | 52.98469 | 6.57247 | 36360 ft | 421 kts | 227° |
| 2026-04-26 14:08 | 52.94282 | 6.50469 | 36357 ft | 421 kts | 227° |
| 2026-04-26 14:09 | 52.90088 | 6.43700 | 36350 ft | 421 kts | 227° |
| 2026-04-26 14:09 | 52.85893 | 6.36958 | 36344 ft | 420 kts | 227° |
| 2026-04-26 14:10 | 52.81652 | 6.30281 | 36339 ft | 422 kts | 225° |
| 2026-04-26 14:10 | 52.77271 | 6.23816 | 36341 ft | 423 kts | 224° |
| 2026-04-26 14:11 | 52.70652 | 6.14252 | 36341 ft | 424 kts | 224° |
| 2026-04-26 14:11 | 52.66245 | 6.07813 | 36345 ft | 423 kts | 225° |
| 2026-04-26 14:12 | 52.61847 | 6.01369 | 36346 ft | 424 kts | 224° |
| 2026-04-26 14:12 | 52.57434 | 5.94921 | 36347 ft | 425 kts | 224° |
| 2026-04-26 14:13 | 52.50784 | 5.85278 | 36350 ft | 425 kts | 224° |
| 2026-04-26 14:14 | 52.46342 | 5.78858 | 36351 ft | 425 kts | 224° |
| 2026-04-26 14:14 | 52.41902 | 5.72450 | 36351 ft | 425 kts | 224° |
| 2026-04-26 14:15 | 52.37454 | 5.66042 | 36351 ft | 426 kts | 224° |
| 2026-04-26 14:15 | 52.32992 | 5.59644 | 36353 ft | 427 kts | 224° |
| 2026-04-26 14:16 | 52.28518 | 5.53268 | 36355 ft | 426 kts | 224° |
| 2026-04-26 14:16 | 52.24052 | 5.46888 | 36356 ft | 427 kts | 224° |
| 2026-04-26 14:17 | 52.19580 | 5.40522 | 36484 ft | 428 kts | 224° |
| 2026-04-26 14:17 | 52.17333 | 5.37331 | 36651 ft | 427 kts | 224° |
| 2026-04-26 14:17 | 52.15096 | 5.34165 | 36889 ft | 425 kts | 224° |
| 2026-04-26 14:17 | 52.12872 | 5.31032 | 37149 ft | 422 kts | 224° |
| 2026-04-26 14:18 | 52.10656 | 5.27914 | 37303 ft | 421 kts | 224° |
| 2026-04-26 14:18 | 52.06238 | 5.21671 | 37328 ft | 420 kts | 224° |
| 2026-04-26 14:19 | 52.01819 | 5.15448 | 37328 ft | 420 kts | 224° |
| 2026-04-26 14:19 | 51.97391 | 5.09242 | 37321 ft | 421 kts | 224° |
| 2026-04-26 14:20 | 51.92951 | 5.03029 | 37321 ft | 422 kts | 224° |
| 2026-04-26 14:20 | 51.88385 | 4.97131 | 37322 ft | 425 kts | 217° |
| 2026-04-26 14:21 | 51.83517 | 4.91717 | 37318 ft | 424 kts | 218° |
| 2026-04-26 14:21 | 51.78657 | 4.86314 | 37310 ft | 424 kts | 218° |
| 2026-04-26 14:22 | 51.73797 | 4.80911 | 37307 ft | 424 kts | 218° |
| 2026-04-26 14:22 | 51.68935 | 4.75518 | 37306 ft | 425 kts | 218° |
| 2026-04-26 14:23 | 51.64057 | 4.70133 | 37306 ft | 425 kts | 217° |
| 2026-04-26 14:23 | 51.59168 | 4.64756 | 37306 ft | 425 kts | 217° |
| 2026-04-26 14:24 | 51.54280 | 4.59403 | 37302 ft | 425 kts | 217° |
| 2026-04-26 14:24 | 51.49382 | 4.54049 | 37303 ft | 426 kts | 217° |
| 2026-04-26 14:25 | 51.44486 | 4.48694 | 37302 ft | 426 kts | 217° |
| 2026-04-26 14:25 | 51.39592 | 4.43353 | 37297 ft | 426 kts | 217° |
| 2026-04-26 14:26 | 51.34685 | 4.38031 | 37293 ft | 426 kts | 217° |
| 2026-04-26 14:26 | 51.29777 | 4.32713 | 37295 ft | 427 kts | 217° |
| 2026-04-26 14:27 | 51.24864 | 4.27397 | 37301 ft | 426 kts | 217° |
| 2026-04-26 14:27 | 51.19939 | 4.22097 | 37305 ft | 427 kts | 217° |
| 2026-04-26 14:28 | 51.14827 | 4.17259 | 37306 ft | 431 kts | 206° |
| 2026-04-26 14:28 | 51.09287 | 4.13579 | 37305 ft | 432 kts | 206° |
| 2026-04-26 14:29 | 51.03739 | 4.09904 | 37305 ft | 432 kts | 206° |
| 2026-04-26 14:29 | 50.98189 | 4.06235 | 37305 ft | 432 kts | 206° |
| 2026-04-26 14:30 | 50.92640 | 4.02566 | 37307 ft | 432 kts | 205° |
| 2026-04-26 14:30 | 50.87983 | 3.99507 | 37308 ft | 432 kts | 205° |
| 2026-04-26 14:31 | 50.82423 | 3.95861 | 37304 ft | 433 kts | 206° |
| 2026-04-26 14:31 | 50.76893 | 3.92229 | 37298 ft | 433 kts | 206° |
| 2026-04-26 14:32 | 50.71320 | 3.88594 | 37299 ft | 434 kts | 206° |
| 2026-04-26 14:32 | 50.65741 | 3.84958 | 37294 ft | 434 kts | 205° |
| 2026-04-26 14:33 | 50.60163 | 3.81332 | 37297 ft | 434 kts | 205° |
| 2026-04-26 14:33 | 50.54587 | 3.77705 | 37298 ft | 434 kts | 206° |
| 2026-04-26 14:34 | 50.48999 | 3.74079 | 37296 ft | 434 kts | 205° |
| 2026-04-26 14:34 | 50.43412 | 3.70479 | 37294 ft | 434 kts | 205° |
| 2026-04-26 14:35 | 50.37825 | 3.66884 | 37294 ft | 435 kts | 205° |
| 2026-04-26 14:35 | 50.32226 | 3.63295 | 37290 ft | 435 kts | 205° |
| 2026-04-26 14:36 | 50.26627 | 3.59711 | 37292 ft | 435 kts | 205° |
| 2026-04-26 14:36 | 50.21027 | 3.56138 | 37290 ft | 435 kts | 205° |
| 2026-04-26 14:37 | 50.15429 | 3.52569 | 37287 ft | 434 kts | 205° |
| 2026-04-26 14:37 | 50.09833 | 3.48998 | 37284 ft | 435 kts | 205° |
| 2026-04-26 14:38 | 50.04233 | 3.45443 | 37284 ft | 435 kts | 205° |
| 2026-04-26 14:38 | 49.98628 | 3.41913 | 37283 ft | 435 kts | 205° |
| 2026-04-26 14:39 | 49.93019 | 3.38370 | 37280 ft | 435 kts | 205° |
| 2026-04-26 14:39 | 49.87403 | 3.34835 | 37282 ft | 436 kts | 205° |
| 2026-04-26 14:40 | 49.81776 | 3.31309 | 37284 ft | 437 kts | 205° |
| 2026-04-26 14:40 | 49.76149 | 3.27788 | 37284 ft | 436 kts | 205° |
| 2026-04-26 14:41 | 49.70526 | 3.24267 | 37280 ft | 436 kts | 205° |
| 2026-04-26 14:41 | 49.64909 | 3.20765 | 37275 ft | 435 kts | 205° |
| 2026-04-26 14:42 | 49.59288 | 3.17279 | 37272 ft | 436 kts | 205° |
| 2026-04-26 14:42 | 49.53659 | 3.13795 | 37272 ft | 436 kts | 205° |
| 2026-04-26 14:43 | 49.48137 | 3.10113 | 37275 ft | 433 kts | 213° |
| 2026-04-26 14:43 | 49.43111 | 3.05072 | 37275 ft | 431 kts | 217° |
| 2026-04-26 14:44 | 49.38108 | 2.99976 | 37272 ft | 432 kts | 217° |
| 2026-04-26 14:44 | 49.33092 | 2.94900 | 37271 ft | 432 kts | 217° |
| 2026-04-26 14:45 | 49.28073 | 2.89841 | 37270 ft | 432 kts | 217° |
| 2026-04-26 14:45 | 49.23056 | 2.84786 | 37267 ft | 431 kts | 217° |
| 2026-04-26 14:46 | 49.18047 | 2.79742 | 37264 ft | 431 kts | 217° |
| 2026-04-26 14:46 | 49.13025 | 2.74706 | 37260 ft | 432 kts | 217° |
| 2026-04-26 14:47 | 49.08002 | 2.69671 | 37259 ft | 432 kts | 217° |
| 2026-04-26 14:47 | 49.02969 | 2.64653 | 37257 ft | 432 kts | 216° |
| 2026-04-26 14:48 | 48.97933 | 2.59653 | 37257 ft | 432 kts | 216° |
| 2026-04-26 14:48 | 48.92898 | 2.54649 | 37258 ft | 432 kts | 216° |
| 2026-04-26 14:49 | 48.87859 | 2.49648 | 37257 ft | 433 kts | 216° |
| 2026-04-26 14:49 | 48.82804 | 2.44658 | 37256 ft | 433 kts | 216° |
| 2026-04-26 14:50 | 48.77757 | 2.39679 | 37249 ft | 433 kts | 216° |
| 2026-04-26 14:50 | 48.72704 | 2.34701 | 37242 ft | 433 kts | 216° |
| 2026-04-26 14:51 | 48.67689 | 2.29777 | 37235 ft | 433 kts | 216° |
| 2026-04-26 14:51 | 48.62623 | 2.24819 | 37231 ft | 433 kts | 216° |
| 2026-04-26 14:52 | 48.57463 | 2.20118 | 37235 ft | 436 kts | 207° |
| 2026-04-26 14:52 | 48.51626 | 2.17502 | 37238 ft | 441 kts | 194° |
| 2026-04-26 14:53 | 48.45620 | 2.15596 | 37238 ft | 441 kts | 194° |
| 2026-04-26 14:53 | 48.39621 | 2.13649 | 37239 ft | 441 kts | 195° |
| 2026-04-26 14:54 | 48.33613 | 2.11696 | 37236 ft | 442 kts | 194° |
| 2026-04-26 14:54 | 48.27520 | 2.10451 | 37235 ft | 445 kts | 181° |
| 2026-04-26 14:55 | 48.21354 | 2.11484 | 37225 ft | 447 kts | 173° |
| 2026-04-26 14:55 | 48.15187 | 2.12752 | 37224 ft | 447 kts | 177° |
| 2026-04-26 14:56 | 48.09022 | 2.12337 | 37221 ft | 443 kts | 190° |
| 2026-04-26 14:56 | 48.02898 | 2.11140 | 37222 ft | 444 kts | 189° |
| 2026-04-26 14:57 | 47.96765 | 2.09968 | 37224 ft | 444 kts | 189° |
| 2026-04-26 14:57 | 47.90628 | 2.08814 | 37225 ft | 445 kts | 189° |
| 2026-04-26 14:58 | 47.84492 | 2.07660 | 37227 ft | 444 kts | 189° |
| 2026-04-26 14:58 | 47.78365 | 2.06498 | 37223 ft | 444 kts | 189° |
| 2026-04-26 14:59 | 47.72229 | 2.05332 | 37227 ft | 444 kts | 189° |
| 2026-04-26 14:59 | 47.66099 | 2.04168 | 37223 ft | 444 kts | 189° |
| 2026-04-26 15:00 | 47.60191 | 2.01832 | 37224 ft | 439 kts | 204° |
| 2026-04-26 15:00 | 47.54551 | 1.98543 | 37219 ft | 438 kts | 204° |
| 2026-04-26 15:01 | 47.48879 | 1.95256 | 37211 ft | 438 kts | 204° |
| 2026-04-26 15:01 | 47.43188 | 1.91976 | 37207 ft | 439 kts | 204° |
| 2026-04-26 15:02 | 47.37493 | 1.88697 | 37207 ft | 439 kts | 204° |
| 2026-04-26 15:02 | 47.31801 | 1.85429 | 37205 ft | 439 kts | 204° |
| 2026-04-26 15:03 | 47.26108 | 1.82156 | 37200 ft | 439 kts | 204° |
| 2026-04-26 15:03 | 47.20416 | 1.78895 | 37198 ft | 439 kts | 204° |
| 2026-04-26 15:04 | 47.14711 | 1.75653 | 37195 ft | 439 kts | 203° |
| 2026-04-26 15:04 | 47.08998 | 1.72448 | 37194 ft | 440 kts | 203° |
| 2026-04-26 15:05 | 47.03281 | 1.69247 | 37196 ft | 440 kts | 203° |
| 2026-04-26 15:05 | 46.97565 | 1.66046 | 37196 ft | 440 kts | 204° |
| 2026-04-26 15:06 | 46.91846 | 1.62844 | 37195 ft | 440 kts | 204° |
| 2026-04-26 15:06 | 46.86131 | 1.59650 | 37195 ft | 440 kts | 204° |
| 2026-04-26 15:07 | 46.77535 | 1.54858 | 37198 ft | 441 kts | 204° |
| 2026-04-26 15:07 | 46.71801 | 1.51679 | 37197 ft | 441 kts | 203° |
| 2026-04-26 15:08 | 46.66066 | 1.48512 | 37195 ft | 440 kts | 203° |
| 2026-04-26 15:08 | 46.60378 | 1.45367 | 37193 ft | 441 kts | 203° |
| 2026-04-26 15:09 | 46.54650 | 1.42211 | 37186 ft | 440 kts | 203° |
| 2026-04-26 15:09 | 46.48917 | 1.39064 | 37181 ft | 441 kts | 203° |
| 2026-04-26 15:10 | 46.44110 | 1.36435 | 37180 ft | 441 kts | 203° |
| 2026-04-26 15:10 | 46.37447 | 1.32782 | 37178 ft | 441 kts | 203° |
| 2026-04-26 15:11 | 46.31703 | 1.29640 | 37194 ft | 441 kts | 203° |
| 2026-04-26 15:11 | 46.25958 | 1.26506 | 37185 ft | 441 kts | 203° |
| 2026-04-26 15:12 | 46.20212 | 1.23387 | 37191 ft | 441 kts | 203° |
| 2026-04-26 15:12 | 46.14464 | 1.20278 | 37191 ft | 441 kts | 203° |
| 2026-04-26 15:13 | 46.08730 | 1.17173 | 37180 ft | 441 kts | 203° |
| 2026-04-26 15:13 | 46.02991 | 1.14063 | 37189 ft | 441 kts | 203° |
| 2026-04-26 15:14 | 45.97250 | 1.10964 | 37190 ft | 441 kts | 203° |
| 2026-04-26 15:14 | 45.91499 | 1.07880 | 37185 ft | 441 kts | 202° |
| 2026-04-26 15:15 | 45.85750 | 1.04804 | 37180 ft | 441 kts | 202° |
| 2026-04-26 15:15 | 45.80307 | 1.00891 | 37180 ft | 436 kts | 219° |
| 2026-04-26 15:16 | 45.75673 | 0.95432 | 37191 ft | 434 kts | 223° |
| 2026-04-26 15:16 | 45.71035 | 0.89899 | 37190 ft | 434 kts | 223° |
| 2026-04-26 15:17 | 45.67925 | 0.86204 | 37180 ft | 434 kts | 222° |
| 2026-04-26 15:17 | 45.61748 | 0.78849 | 37183 ft | 434 kts | 223° |
| 2026-04-26 15:18 | 45.57109 | 0.73324 | 37187 ft | 434 kts | 223° |
| 2026-04-26 15:18 | 45.52467 | 0.67811 | 37180 ft | 434 kts | 222° |
| 2026-04-26 15:19 | 45.48574 | 0.63207 | 37181 ft | 434 kts | 222° |
| 2026-04-26 15:19 | 45.43956 | 0.57754 | 37173 ft | 434 kts | 222° |
| 2026-04-26 15:20 | 45.39314 | 0.52276 | 37175 ft | 434 kts | 222° |
| 2026-04-26 15:20 | 45.34664 | 0.46819 | 37165 ft | 433 kts | 222° |
| 2026-04-26 15:21 | 45.30019 | 0.41359 | 37165 ft | 433 kts | 222° |
| 2026-04-26 15:21 | 45.25371 | 0.35906 | 37164 ft | 433 kts | 222° |
| 2026-04-26 15:22 | 45.20717 | 0.30475 | 37158 ft | 433 kts | 222° |
| 2026-04-26 15:22 | 45.16059 | 0.25061 | 37152 ft | 433 kts | 222° |
| 2026-04-26 15:23 | 45.11408 | 0.19659 | 37147 ft | 432 kts | 222° |
| 2026-04-26 15:23 | 45.06761 | 0.14255 | 37145 ft | 432 kts | 222° |
| 2026-04-26 15:24 | 45.02110 | 0.08861 | 37146 ft | 432 kts | 222° |
| 2026-04-26 15:24 | 44.97450 | 0.03473 | 37146 ft | 433 kts | 221° |
| 2026-04-26 15:25 | 44.92784 | -0.01912 | 37150 ft | 433 kts | 221° |
| 2026-04-26 15:25 | 44.88118 | -0.07277 | 37172 ft | 431 kts | 221° |
| 2026-04-26 15:26 | 44.83477 | -0.12611 | 37175 ft | 430 kts | 221° |
| 2026-04-26 15:26 | 44.78843 | -0.17918 | 37179 ft | 429 kts | 221° |
| 2026-04-26 15:27 | 44.74221 | -0.23198 | 37165 ft | 427 kts | 221° |
| 2026-04-26 15:27 | 44.69605 | -0.28459 | 37162 ft | 427 kts | 221° |
| 2026-04-26 15:28 | 44.64983 | -0.33711 | 37159 ft | 428 kts | 220° |
| 2026-04-26 15:28 | 44.60173 | -0.38655 | 37161 ft | 428 kts | 216° |
| 2026-04-26 15:29 | 44.55212 | -0.43290 | 37160 ft | 428 kts | 215° |
| 2026-04-26 15:30 | 44.45320 | -0.52618 | 37153 ft | 429 kts | 216° |
| 2026-04-26 15:30 | 44.40402 | -0.57347 | 37158 ft | 429 kts | 216° |
| 2026-04-26 15:31 | 44.33013 | -0.64422 | 37159 ft | 430 kts | 216° |
| 2026-04-26 15:32 | 44.26443 | -0.70686 | 37160 ft | 429 kts | 217° |
| 2026-04-26 15:32 | 44.20795 | -0.76416 | 37160 ft | 429 kts | 218° |
| 2026-04-26 15:33 | 44.16006 | -0.81390 | 37161 ft | 429 kts | 218° |
| 2026-04-26 15:33 | 44.11206 | -0.86321 | 37158 ft | 429 kts | 218° |
| 2026-04-26 15:34 | 44.06378 | -0.91212 | 37154 ft | 430 kts | 218° |
| 2026-04-26 15:34 | 44.01540 | -0.96102 | 37158 ft | 430 kts | 218° |
| 2026-04-26 15:35 | 43.96700 | -1.00996 | 37164 ft | 431 kts | 217° |
| 2026-04-26 15:35 | 43.91852 | -1.05890 | 37168 ft | 431 kts | 217° |
| 2026-04-26 15:36 | 43.87010 | -1.10768 | 37174 ft | 430 kts | 217° |
| 2026-04-26 15:36 | 43.82201 | -1.15597 | 37174 ft | 430 kts | 217° |
| 2026-04-26 15:37 | 43.77359 | -1.20454 | 37172 ft | 430 kts | 217° |
| 2026-04-26 15:37 | 43.72522 | -1.25301 | 37175 ft | 429 kts | 217° |
| 2026-04-26 15:38 | 43.67682 | -1.30136 | 37177 ft | 430 kts | 217° |
| 2026-04-26 15:38 | 43.62838 | -1.34966 | 37180 ft | 429 kts | 217° |
| 2026-04-26 15:39 | 43.57996 | -1.39793 | 37175 ft | 429 kts | 217° |
| 2026-04-26 15:39 | 43.53938 | -1.43818 | 37178 ft | 429 kts | 217° |
| 2026-04-26 15:40 | 43.48337 | -1.49450 | 37182 ft | 428 kts | 222° |
| 2026-04-26 15:40 | 43.44456 | -1.55569 | 37175 ft | 424 kts | 238° |
| 2026-04-26 15:41 | 43.41188 | -1.62336 | 37176 ft | 425 kts | 237° |
| 2026-04-26 15:41 | 43.37896 | -1.69092 | 37181 ft | 425 kts | 237° |
| 2026-04-26 15:42 | 43.34602 | -1.75841 | 37179 ft | 425 kts | 237° |
| 2026-04-26 15:42 | 43.31313 | -1.82600 | 37183 ft | 426 kts | 237° |
| 2026-04-26 15:43 | 43.27861 | -1.89207 | 37185 ft | 426 kts | 234° |
| 2026-04-26 15:44 | 43.22406 | -1.98855 | 37188 ft | 427 kts | 233° |
| 2026-04-26 15:44 | 43.17000 | -2.08554 | 37178 ft | 427 kts | 234° |
| 2026-04-26 15:45 | 43.11614 | -2.18290 | 37179 ft | 427 kts | 234° |
| 2026-04-26 15:46 | 43.06233 | -2.27949 | 37177 ft | 427 kts | 234° |
| 2026-04-26 15:46 | 43.03209 | -2.33353 | 37166 ft | 427 kts | 234° |
| 2026-04-26 15:47 | 42.97205 | -2.44070 | 37155 ft | 428 kts | 233° |
| 2026-04-26 15:48 | 42.93588 | -2.50515 | 37152 ft | 428 kts | 233° |
| 2026-04-26 15:48 | 42.89965 | -2.56943 | 37144 ft | 427 kts | 233° |
| 2026-04-26 15:49 | 42.86336 | -2.63377 | 37143 ft | 428 kts | 233° |
| 2026-04-26 15:49 | 42.82703 | -2.69796 | 37145 ft | 428 kts | 233° |
| 2026-04-26 15:50 | 42.79060 | -2.76210 | 37145 ft | 428 kts | 233° |
| 2026-04-26 15:50 | 42.75412 | -2.82626 | 37147 ft | 428 kts | 233° |
| 2026-04-26 15:51 | 42.71781 | -2.89029 | 37144 ft | 427 kts | 234° |
| 2026-04-26 15:51 | 42.68228 | -2.95424 | 37141 ft | 427 kts | 234° |
| 2026-04-26 15:52 | 42.64652 | -3.01890 | 37140 ft | 427 kts | 234° |
| 2026-04-26 15:52 | 42.61072 | -3.08328 | 37136 ft | 427 kts | 234° |
| 2026-04-26 15:53 | 42.57471 | -3.14754 | 37130 ft | 427 kts | 233° |
| 2026-04-26 15:53 | 42.53865 | -3.21168 | 37127 ft | 427 kts | 233° |
| 2026-04-26 15:54 | 42.50264 | -3.27585 | 37128 ft | 428 kts | 233° |
| 2026-04-26 15:54 | 42.46657 | -3.33995 | 37128 ft | 428 kts | 233° |
| 2026-04-26 15:55 | 42.43038 | -3.40408 | 37132 ft | 428 kts | 233° |
| 2026-04-26 15:55 | 42.39415 | -3.46813 | 37134 ft | 429 kts | 233° |
| 2026-04-26 15:56 | 42.35794 | -3.53208 | 37132 ft | 428 kts | 233° |
| 2026-04-26 15:56 | 42.32167 | -3.59599 | 37128 ft | 428 kts | 233° |
| 2026-04-26 15:57 | 42.28532 | -3.65989 | 37126 ft | 429 kts | 233° |
| 2026-04-26 15:57 | 42.24887 | -3.72387 | 37128 ft | 430 kts | 233° |
| 2026-04-26 15:58 | 42.21239 | -3.78774 | 37129 ft | 430 kts | 233° |
| 2026-04-26 15:58 | 42.17586 | -3.85152 | 37127 ft | 430 kts | 233° |
| 2026-04-26 15:59 | 42.13923 | -3.91531 | 37126 ft | 430 kts | 233° |
| 2026-04-26 15:59 | 42.10260 | -3.97907 | 37128 ft | 431 kts | 233° |
| 2026-04-26 16:00 | 42.06611 | -4.04237 | 37129 ft | 431 kts | 233° |
| 2026-04-26 16:00 | 42.02856 | -4.10583 | 37129 ft | 431 kts | 227° |
| 2026-04-26 16:01 | 41.98443 | -4.15968 | 37130 ft | 432 kts | 221° |
| 2026-04-26 16:01 | 41.93905 | -4.21264 | 37134 ft | 432 kts | 221° |
| 2026-04-26 16:02 | 41.89381 | -4.26568 | 37133 ft | 431 kts | 222° |
| 2026-04-26 16:02 | 41.84860 | -4.31866 | 37133 ft | 432 kts | 221° |
| 2026-04-26 16:03 | 41.80329 | -4.37145 | 37138 ft | 432 kts | 221° |
| 2026-04-26 16:03 | 41.75792 | -4.42416 | 37138 ft | 432 kts | 221° |
| 2026-04-26 16:04 | 41.71257 | -4.47676 | 37139 ft | 431 kts | 221° |
| 2026-04-26 16:04 | 41.66721 | -4.52933 | 37138 ft | 431 kts | 221° |
| 2026-04-26 16:05 | 41.62186 | -4.58175 | 37137 ft | 431 kts | 221° |
| 2026-04-26 16:05 | 41.57653 | -4.63401 | 37136 ft | 430 kts | 221° |
| 2026-04-26 16:06 | 41.53858 | -4.67774 | 37135 ft | 430 kts | 221° |
| 2026-04-26 16:06 | 41.49332 | -4.72986 | 37137 ft | 430 kts | 221° |
| 2026-04-26 16:07 | 41.44804 | -4.78189 | 37138 ft | 430 kts | 221° |
| 2026-04-26 16:07 | 41.40267 | -4.83378 | 37141 ft | 429 kts | 221° |
| 2026-04-26 16:08 | 41.35768 | -4.88512 | 37139 ft | 429 kts | 221° |
| 2026-04-26 16:08 | 41.31236 | -4.93684 | 37141 ft | 429 kts | 221° |
| 2026-04-26 16:09 | 41.26709 | -4.98844 | 37139 ft | 429 kts | 221° |
| 2026-04-26 16:09 | 41.22172 | -5.03998 | 37138 ft | 429 kts | 221° |
| 2026-04-26 16:10 | 41.17632 | -5.09148 | 37142 ft | 429 kts | 221° |
| 2026-04-26 16:10 | 41.13092 | -5.14281 | 37143 ft | 429 kts | 221° |
| 2026-04-26 16:11 | 41.08544 | -5.19411 | 37143 ft | 429 kts | 221° |
| 2026-04-26 16:11 | 41.04002 | -5.24538 | 37144 ft | 429 kts | 221° |
| 2026-04-26 16:12 | 40.99460 | -5.29658 | 37145 ft | 429 kts | 221° |
| 2026-04-26 16:12 | 40.92651 | -5.37304 | 37139 ft | 428 kts | 221° |
| 2026-04-26 16:13 | 40.88112 | -5.42387 | 37137 ft | 428 kts | 221° |
| 2026-04-26 16:13 | 40.83570 | -5.47469 | 37136 ft | 428 kts | 221° |
| 2026-04-26 16:14 | 40.79024 | -5.52539 | 37134 ft | 428 kts | 221° |
| 2026-04-26 16:15 | 40.72195 | -5.60149 | 37134 ft | 428 kts | 221° |
| 2026-04-26 16:15 | 40.67634 | -5.65209 | 37132 ft | 429 kts | 221° |
| 2026-04-26 16:16 | 40.60785 | -5.72786 | 37136 ft | 429 kts | 221° |
| 2026-04-26 16:16 | 40.56223 | -5.77836 | 37132 ft | 428 kts | 221° |
| 2026-04-26 16:17 | 40.51666 | -5.82877 | 37124 ft | 428 kts | 221° |
| 2026-04-26 16:17 | 40.47103 | -5.87904 | 37120 ft | 428 kts | 221° |
| 2026-04-26 16:18 | 40.40252 | -5.95424 | 37112 ft | 428 kts | 221° |
| 2026-04-26 16:19 | 40.33407 | -6.02932 | 37111 ft | 428 kts | 221° |
| 2026-04-26 16:20 | 40.26541 | -6.10433 | 37104 ft | 428 kts | 221° |
| 2026-04-26 16:20 | 40.19703 | -6.17889 | 37099 ft | 429 kts | 221° |
| 2026-04-26 16:21 | 40.15118 | -6.22887 | 37092 ft | 429 kts | 221° |
| 2026-04-26 16:21 | 40.10539 | -6.27869 | 37093 ft | 429 kts | 221° |
| 2026-04-26 16:22 | 40.05952 | -6.32835 | 37085 ft | 428 kts | 221° |
| 2026-04-26 16:22 | 40.01358 | -6.37799 | 37084 ft | 429 kts | 221° |
| 2026-04-26 16:23 | 39.96767 | -6.42759 | 37081 ft | 429 kts | 221° |
| 2026-04-26 16:23 | 39.92172 | -6.47716 | 37080 ft | 429 kts | 221° |
| 2026-04-26 16:24 | 39.87574 | -6.52655 | 37078 ft | 428 kts | 221° |
| 2026-04-26 16:24 | 39.82978 | -6.57590 | 37076 ft | 428 kts | 221° |
| 2026-04-26 16:25 | 39.78392 | -6.62512 | 37070 ft | 428 kts | 221° |
| 2026-04-26 16:25 | 39.73793 | -6.67435 | 37071 ft | 428 kts | 221° |
| 2026-04-26 16:26 | 39.69969 | -6.71520 | 37070 ft | 428 kts | 221° |
| 2026-04-26 16:26 | 39.64601 | -6.77243 | 37067 ft | 427 kts | 221° |
| 2026-04-26 16:27 | 39.60008 | -6.82136 | 37065 ft | 426 kts | 221° |
| 2026-04-26 16:27 | 39.55422 | -6.87016 | 37063 ft | 427 kts | 221° |
| 2026-04-26 16:28 | 39.50827 | -6.91890 | 37061 ft | 426 kts | 221° |
| 2026-04-26 16:28 | 39.46231 | -6.96749 | 37059 ft | 426 kts | 221° |
| 2026-04-26 16:29 | 39.41641 | -7.01600 | 37058 ft | 426 kts | 221° |
| 2026-04-26 16:29 | 39.37053 | -7.06443 | 37058 ft | 426 kts | 221° |
| 2026-04-26 16:30 | 39.32466 | -7.11282 | 37056 ft | 425 kts | 221° |
| 2026-04-26 16:30 | 39.27908 | -7.16066 | 37050 ft | 425 kts | 221° |
| 2026-04-26 16:31 | 39.23245 | -7.20758 | 37046 ft | 426 kts | 213° |
| 2026-04-26 16:31 | 39.17809 | -7.23789 | 37045 ft | 429 kts | 197° |
| 2026-04-26 16:32 | 39.12975 | -7.25469 | 37039 ft | 429 kts | 197° |
| 2026-04-26 16:32 | 39.06283 | -7.27815 | 37031 ft | 429 kts | 197° |
| 2026-04-26 16:33 | 39.00522 | -7.29829 | 37033 ft | 429 kts | 197° |
| 2026-04-26 16:33 | 38.94763 | -7.31845 | 37028 ft | 429 kts | 197° |
| 2026-04-26 16:34 | 38.89002 | -7.33853 | 37031 ft | 429 kts | 197° |
| 2026-04-26 16:34 | 38.83241 | -7.35856 | 36944 ft | 430 kts | 197° |
| 2026-04-26 16:35 | 38.80347 | -7.36861 | 36425 ft | 431 kts | 197° |
| 2026-04-26 16:35 | 38.77463 | -7.37862 | 35893 ft | 428 kts | 197° |
| 2026-04-26 16:35 | 38.74593 | -7.38858 | 35377 ft | 425 kts | 197° |
| 2026-04-26 16:35 | 38.71747 | -7.39846 | 34865 ft | 423 kts | 197° |
| 2026-04-26 16:36 | 38.68917 | -7.40825 | 34349 ft | 421 kts | 197° |
| 2026-04-26 16:36 | 38.66095 | -7.41798 | 33836 ft | 419 kts | 197° |
| 2026-04-26 16:36 | 38.63286 | -7.42766 | 33325 ft | 417 kts | 197° |
| 2026-04-26 16:36 | 38.60497 | -7.43727 | 32818 ft | 414 kts | 197° |
| 2026-04-26 16:37 | 38.57719 | -7.44686 | 32317 ft | 412 kts | 197° |
| 2026-04-26 16:37 | 38.54962 | -7.45641 | 31820 ft | 410 kts | 196° |
| 2026-04-26 16:37 | 38.52214 | -7.46592 | 31331 ft | 407 kts | 196° |
| 2026-04-26 16:37 | 38.50410 | -7.47215 | 31011 ft | 405 kts | 196° |
| 2026-04-26 16:38 | 38.46760 | -7.48477 | 30382 ft | 416 kts | 196° |
| 2026-04-26 16:38 | 38.43884 | -7.49469 | 29868 ft | 438 kts | 196° |
| 2026-04-26 16:38 | 38.40913 | -7.50488 | 29360 ft | 445 kts | 196° |
| 2026-04-26 16:38 | 38.37923 | -7.51508 | 28858 ft | 445 kts | 195° |
| 2026-04-26 16:39 | 38.34938 | -7.52524 | 28364 ft | 452 kts | 195° |
| 2026-04-26 16:39 | 38.31898 | -7.53563 | 27857 ft | 452 kts | 195° |
| 2026-04-26 16:39 | 38.28869 | -7.54603 | 27346 ft | 450 kts | 195° |
| 2026-04-26 16:39 | 38.25861 | -7.55637 | 26831 ft | 447 kts | 195° |
| 2026-04-26 16:40 | 38.22867 | -7.56663 | 26309 ft | 443 kts | 195° |
| 2026-04-26 16:40 | 38.19902 | -7.57676 | 25778 ft | 440 kts | 195° |
| 2026-04-26 16:40 | 38.16954 | -7.58683 | 25249 ft | 437 kts | 195° |
| 2026-04-26 16:40 | 38.14028 | -7.59679 | 24693 ft | 434 kts | 195° |
| 2026-04-26 16:41 | 38.11124 | -7.60667 | 24149 ft | 431 kts | 195° |
| 2026-04-26 16:41 | 38.08198 | -7.61383 | 23603 ft | 427 kts | 184° |
| 2026-04-26 16:41 | 38.05236 | -7.61450 | 23069 ft | 424 kts | 180° |
| 2026-04-26 16:41 | 38.02296 | -7.61442 | 22525 ft | 421 kts | 180° |
| 2026-04-26 16:42 | 37.99376 | -7.61436 | 22006 ft | 418 kts | 180° |
| 2026-04-26 16:42 | 37.96475 | -7.61436 | 21497 ft | 415 kts | 180° |
| 2026-04-26 16:42 | 37.93597 | -7.61439 | 20985 ft | 412 kts | 180° |
| 2026-04-26 16:42 | 37.90739 | -7.61443 | 20478 ft | 409 kts | 180° |
| 2026-04-26 16:43 | 37.87906 | -7.61450 | 19977 ft | 406 kts | 180° |
| 2026-04-26 16:43 | 37.85085 | -7.61456 | 19480 ft | 403 kts | 180° |
| 2026-04-26 16:43 | 37.82290 | -7.61459 | 18987 ft | 400 kts | 179° |
| 2026-04-26 16:43 | 37.79513 | -7.61459 | 18496 ft | 398 kts | 179° |
| 2026-04-26 16:44 | 37.76757 | -7.61459 | 18004 ft | 395 kts | 179° |
| 2026-04-26 16:44 | 37.74019 | -7.61460 | 17533 ft | 392 kts | 179° |
| 2026-04-26 16:44 | 37.71338 | -7.61458 | 17067 ft | 389 kts | 179° |
| 2026-04-26 16:44 | 37.68640 | -7.61452 | 16605 ft | 387 kts | 179° |
| 2026-04-26 16:45 | 37.65956 | -7.61449 | 16145 ft | 384 kts | 179° |
| 2026-04-26 16:45 | 37.63296 | -7.61450 | 15696 ft | 381 kts | 179° |
| 2026-04-26 16:45 | 37.60652 | -7.61452 | 15248 ft | 379 kts | 179° |
| 2026-04-26 16:45 | 37.58027 | -7.61455 | 14806 ft | 376 kts | 178° |
| 2026-04-26 16:46 | 37.55418 | -7.61459 | 14372 ft | 374 kts | 178° |
| 2026-04-26 16:46 | 37.52826 | -7.61460 | 13930 ft | 371 kts | 178° |
| 2026-04-26 16:46 | 37.50253 | -7.61460 | 13494 ft | 369 kts | 178° |
| 2026-04-26 16:46 | 37.47695 | -7.61461 | 13071 ft | 367 kts | 178° |
| 2026-04-26 16:47 | 37.45151 | -7.61463 | 12628 ft | 364 kts | 178° |
| 2026-04-26 16:47 | 37.42629 | -7.61464 | 12180 ft | 361 kts | 178° |
| 2026-04-26 16:47 | 37.40128 | -7.61464 | 11715 ft | 358 kts | 178° |
| 2026-04-26 16:47 | 37.37638 | -7.61463 | 11300 ft | 356 kts | 178° |
| 2026-04-26 16:48 | 37.35163 | -7.61462 | 10833 ft | 355 kts | 178° |
| 2026-04-26 16:48 | 37.32714 | -7.61465 | 10499 ft | 343 kts | 178° |
| 2026-04-26 16:48 | 37.30423 | -7.61472 | 10369 ft | 316 kts | 178° |
| 2026-04-26 16:48 | 37.28295 | -7.61478 | 10106 ft | 298 kts | 177° |
| 2026-04-26 16:49 | 37.26253 | -7.61477 | 9545 ft | 291 kts | 177° |
| 2026-04-26 16:49 | 37.24236 | -7.61474 | 8880 ft | 289 kts | 177° |
| 2026-04-26 16:49 | 37.22225 | -7.61470 | 8349 ft | 290 kts | 177° |
| 2026-04-26 16:49 | 37.20213 | -7.61464 | 7917 ft | 289 kts | 177° |
| 2026-04-26 16:50 | 37.18208 | -7.61458 | 7647 ft | 283 kts | 177° |
| 2026-04-26 16:50 | 37.16277 | -7.61460 | 7507 ft | 272 kts | 176° |
| 2026-04-26 16:50 | 37.14418 | -7.61466 | 7302 ft | 264 kts | 176° |
| 2026-04-26 16:50 | 37.12596 | -7.61471 | 6976 ft | 260 kts | 176° |
| 2026-04-26 16:51 | 37.10789 | -7.61475 | 6611 ft | 259 kts | 176° |
| 2026-04-26 16:51 | 37.08991 | -7.61520 | 6230 ft | 259 kts | 183° |
| 2026-04-26 16:51 | 37.07221 | -7.62036 | 5667 ft | 269 kts | 199° |
| 2026-04-26 16:51 | 37.05484 | -7.62989 | 5210 ft | 271 kts | 201° |
| 2026-04-26 16:52 | 37.03791 | -7.63933 | 5030 ft | 262 kts | 201° |
| 2026-04-26 16:52 | 37.03235 | -7.64242 | 4975 ft | 258 kts | 201° |
| 2026-04-26 16:52 | 37.00599 | -7.65704 | 4768 ft | 240 kts | 200° |
| 2026-04-26 16:52 | 36.99602 | -7.66256 | 4690 ft | 233 kts | 200° |
| 2026-04-26 16:53 | 36.98248 | -7.67326 | 4579 ft | 233 kts | 227° |
| 2026-04-26 16:53 | 36.97578 | -7.69156 | 4226 ft | 237 kts | 269° |
| 2026-04-26 16:53 | 36.97750 | -7.71177 | 3940 ft | 233 kts | 283° |
| 2026-04-26 16:53 | 36.98066 | -7.73132 | 3641 ft | 226 kts | 283° |
| 2026-04-26 16:54 | 36.98356 | -7.75047 | 3332 ft | 222 kts | 282° |
| 2026-04-26 16:54 | 36.98627 | -7.76920 | 3044 ft | 217 kts | 282° |
| 2026-04-26 16:54 | 36.98892 | -7.78761 | 2739 ft | 213 kts | 282° |
| 2026-04-26 16:54 | 36.99150 | -7.80552 | 2451 ft | 202 kts | 279° |
| 2026-04-26 16:55 | 36.99389 | -7.82214 | 2198 ft | 187 kts | 278° |
| 2026-04-26 16:55 | 36.99613 | -7.83774 | 1959 ft | 178 kts | 277° |
| 2026-04-26 16:55 | 36.99828 | -7.85272 | 1734 ft | 169 kts | 277° |
| 2026-04-26 16:55 | 37.00026 | -7.86650 | 1514 ft | 155 kts | 277° |
| 2026-04-26 16:56 | 37.00384 | -7.89158 | 1121 ft | 141 kts | 276° |
| 2026-04-26 16:56 | 37.00554 | -7.90354 | 937 ft | 138 kts | 277° |
| 2026-04-26 16:56 | 37.00721 | -7.91524 | 754 ft | 135 kts | 280° |
| 2026-04-26 16:57 | 37.00884 | -7.92671 | 578 ft | 133 kts | 279° |
| 2026-04-26 16:57 | 37.01047 | -7.93812 | 400 ft | 134 kts | 279° |
| 2026-04-26 16:57 | 37.01371 | -7.96088 | 47 ft | 133 kts | 279° |
| 2026-04-26 16:58 | 37.01510 | -7.97069 | 21 ft | 91 kts | 280° |
| 2026-04-26 16:58 | 37.01572 | -7.97514 | 22 ft | 67 kts | 279° |
| 2026-04-26 16:58 | 37.01754 | -7.98189 | 26 ft | 23 kts | 309° |
| 2026-04-26 16:59 | 37.01839 | -7.98222 | 28 ft | 11 kts | 40° |
| 2026-04-26 16:59 | 37.01832 | -7.98033 | 24 ft | 12 kts | 99° |
| 2026-04-26 17:00 | 37.01805 | -7.97837 | 23 ft | 10 kts | 99° |
| 2026-04-26 17:00 | 37.01780 | -7.97662 | 20 ft | 11 kts | 101° |
| 2026-04-26 17:00 | 37.01766 | -7.97568 | 20 ft | 10 kts | 100° |
| 2026-04-26 17:01 | 37.01754 | -7.97484 | 21 ft | 9 kts | 99° |
| 2026-04-26 17:01 | 37.01743 | -7.97404 | 23 ft | 10 kts | 100° |
| 2026-04-26 17:01 | 37.01732 | -7.97326 | 20 ft | 9 kts | 100° |
| 2026-04-26 17:01 | 37.01721 | -7.97253 | 20 ft | 8 kts | 100° |
| 2026-04-26 17:02 | 37.01712 | -7.97186 | 22 ft | 7 kts | 99° |
| 2026-04-26 17:02 | 37.01700 | -7.97100 | 21 ft | 13 kts | 100° |
| 2026-04-26 17:02 | 37.01685 | -7.96993 | 22 ft | 12 kts | 98° |
| 2026-04-26 17:02 | 37.01705 | -7.96910 | 22 ft | 10 kts | 28° |
| 2026-04-26 17:03 | 37.01770 | -7.96894 | 20 ft | 9 kts | 9° |
| 2026-04-26 17:03 | 37.01822 | -7.96861 | 20 ft | 8 kts | 59° |
| 2026-04-26 17:03 | 37.01827 | -7.96799 | 20 ft | 5 kts | 67° |
| 2026-04-26 17:03 | 37.01855 | -7.96781 | 20 ft | 4 kts | 15° |
| 2026-04-26 17:04 | 37.01880 | -7.96778 | 20 ft | 3 kts | 6° |
| 2026-04-26 17:04 | 37.01899 | -7.96774 | 20 ft | 3 kts | 9° |
| 2026-04-26 17:04 | 37.01911 | -7.96772 | 20 ft | 0 kts | 10° |